Time;durP1;ratioP1;P1;durP2;ratioP2;P2;SDS_P1;SDS_P2;PMS_P1;PMS_P2;Temp;Humidity;BMP_temperature;BMP_pressure;BME280_temperature;BME280_humidity;BME280_pressure;Samples;Min_cycle;Max_cycle;Signal;HPM_P1;HPM_P2
2021/03/16 00:00:21;;;;;;;19.40;2.90;;;;;;;;;;5032621;28;20208;-69
2021/03/16 00:02:46;;;;;;;29.83;3.37;;;;;;;;;;5034491;28;20217;-69
2021/03/16 00:05:12;;;;;;;18.87;2.67;;;;;;;;;;5038951;28;20201;-69
2021/03/16 00:07:38;;;;;;;17.93;2.53;;;;;;;;;;5033388;28;20565;-69
2021/03/16 00:10:04;;;;;;;21.33;2.77;;;;;;;;;;5042225;28;20312;-69
2021/03/16 00:12:29;;;;;;;25.33;2.90;;;;;;;;;;5024517;28;20217;-69
2021/03/16 00:14:55;;;;;;;15.60;2.80;;;;;;;;;;5041536;28;20568;-69
2021/03/16 00:17:20;;;;;;;18.63;3.03;;;;;;;;;;5033423;28;20193;-69
2021/03/16 00:19:46;;;;;;;23.57;2.83;;;;;;;;;;5039799;28;20535;-69
2021/03/16 00:22:12;;;;;;;28.67;3.53;;;;;;;;;;5030950;28;20288;-69
2021/03/16 00:24:37;;;;;;;24.50;3.37;;;;;;;;;;5040382;28;20280;-69
2021/03/16 00:27:03;;;;;;;21.80;3.30;;;;;;;;;;5032499;28;20204;-69
2021/03/16 00:29:29;;;;;;;20.90;2.97;;;;;;;;;;5037146;28;20182;-69
2021/03/16 00:31:54;;;;;;;18.60;2.80;;;;;;;;;;5042058;28;20239;-69
2021/03/16 00:34:19;;;;;;;19.93;2.63;;;;;;;;;;5031274;28;20197;-69
2021/03/16 00:36:45;;;;;;;25.00;3.13;;;;;;;;;;5038924;28;20205;-69
2021/03/16 00:39:10;;;;;;;23.47;3.30;;;;;;;;;;5029702;28;20226;-69
2021/03/16 00:41:36;;;;;;;20.10;2.67;;;;;;;;;;5029766;28;20273;-69
2021/03/16 00:44:01;;;;;;;22.30;3.97;;;;;;;;;;5032294;28;20215;-69
2021/03/16 00:46:26;;;;;;;14.97;1.87;;;;;;;;;;5035347;28;20521;-69
2021/03/16 00:48:52;;;;;;;24.07;2.77;;;;;;;;;;5034208;28;20205;-69
2021/03/16 00:51:17;;;;;;;17.50;2.97;;;;;;;;;;5037099;28;20193;-69
2021/03/16 00:53:43;;;;;;;22.97;3.03;;;;;;;;;;5024730;28;20326;-69
2021/03/16 00:56:08;;;;;;;22.33;2.80;;;;;;;;;;5034262;28;20186;-69
2021/03/16 00:58:33;;;;;;;20.43;2.77;;;;;;;;;;5031140;28;20207;-69
2021/03/16 01:00:59;;;;;;;20.67;2.93;;;;;;;;;;5035924;28;20280;-69
2021/03/16 01:03:25;;;;;;;16.37;2.70;;;;;;;;;;5043297;28;20244;-69
2021/03/16 01:05:51;;;;;;;25.97;3.07;;;;;;;;;;5026469;28;20560;-69
2021/03/16 01:08:18;;;;;;;17.03;2.30;;;;;;;;;;5037965;28;20186;-69
2021/03/16 01:10:45;;;;;;;26.30;3.33;;;;;;;;;;5028650;28;20205;-69
2021/03/16 01:13:10;;;;;;;20.93;2.93;;;;;;;;;;5043746;28;20251;-69
2021/03/16 01:15:36;;;;;;;16.77;2.60;;;;;;;;;;5026969;28;20194;-69
2021/03/16 01:18:01;;;;;;;15.53;2.40;;;;;;;;;;5041521;28;20193;-69
2021/03/16 01:20:27;;;;;;;15.13;2.33;;;;;;;;;;5025698;28;20186;-69
2021/03/16 01:22:53;;;;;;;22.03;2.43;;;;;;;;;;5038577;28;20220;-69
2021/03/16 01:25:18;;;;;;;22.47;2.70;;;;;;;;;;5028231;28;20560;-69
2021/03/16 01:27:44;;;;;;;26.17;2.77;;;;;;;;;;5043878;28;20220;-69
2021/03/16 01:30:11;;;;;;;18.83;2.43;;;;;;;;;;5027347;28;20808;-69
2021/03/16 01:32:36;;;;;;;18.73;2.63;;;;;;;;;;5033566;28;20264;-69
2021/03/16 01:35:04;;;;;;;13.73;2.53;;;;;;;;;;5035804;28;20265;-69
2021/03/16 01:37:30;;;;;;;19.47;3.43;;;;;;;;;;5035968;28;20712;-69
2021/03/16 01:39:56;;;;;;;14.57;2.63;;;;;;;;;;5034043;28;20268;-69
2021/03/16 01:42:22;;;;;;;20.07;2.27;;;;;;;;;;5028514;28;20270;-69
2021/03/16 01:44:47;;;;;;;22.17;2.30;;;;;;;;;;5036717;28;20197;-69
2021/03/16 01:47:15;;;;;;;16.30;2.23;;;;;;;;;;5027805;28;20181;-69
2021/03/16 01:49:42;;;;;;;18.23;2.80;;;;;;;;;;5037464;28;20221;-69
2021/03/16 01:52:08;;;;;;;12.33;3.20;;;;;;;;;;5034710;28;20178;-69
2021/03/16 01:54:33;;;;;;;16.90;2.60;;;;;;;;;;5038045;28;20523;-69
2021/03/16 01:57:02;;;;;;;20.60;2.40;;;;;;;;;;5022510;28;20189;-69
2021/03/16 01:59:28;;;;;;;19.90;2.20;;;;;;;;;;5036852;28;20715;-69
2021/03/16 02:01:53;;;;;;;17.63;2.80;;;;;;;;;;5025222;28;20299;-69
2021/03/16 02:04:19;;;;;;;18.97;3.20;;;;;;;;;;5036991;28;20245;-69
2021/03/16 02:07:10;;;;;;;17.43;3.33;;;;;;;;;;5035613;28;20714;-69
2021/03/16 02:10:00;;;;;;;23.53;3.30;;;;;;;;;;5035562;28;20263;-69
2021/03/16 02:12:41;;;;;;;22.03;3.40;;;;;;;;;;5024714;28;20209;-69
2021/03/16 02:15:16;;;;;;;25.70;3.40;;;;;;;;;;5036926;28;20547;-69
2021/03/16 02:17:47;;;;;;;19.07;3.37;;;;;;;;;;5026124;28;20181;-69
2021/03/16 02:20:40;;;;;;;17.50;3.17;;;;;;;;;;5035136;28;20769;-69
2021/03/16 02:23:07;;;;;;;24.50;2.97;;;;;;;;;;5026392;28;20216;-68
2021/03/16 02:25:57;;;;;;;22.90;2.90;;;;;;;;;;5035204;28;20190;-68
2021/03/16 02:28:56;;;;;;;29.43;3.67;;;;;;;;;;5023791;28;20260;-68
2021/03/16 02:31:23;;;;;;;30.43;3.63;;;;;;;;;;5042400;28;20185;-68
2021/03/16 02:33:50;;;;;;;32.13;3.73;;;;;;;;;;5029913;28;20182;-68
2021/03/16 02:36:16;;;;;;;25.77;3.67;;;;;;;;;;5038567;28;20246;-68
2021/03/16 02:38:46;;;;;;;25.37;3.87;;;;;;;;;;5026711;28;20239;-68
2021/03/16 02:41:15;;;;;;;23.80;3.10;;;;;;;;;;5029484;28;20573;-70
2021/03/16 02:43:40;;;;;;;20.73;4.23;;;;;;;;;;5028889;28;20210;-68
2021/03/16 02:46:06;;;;;;;28.83;3.10;;;;;;;;;;5036338;28;20192;-68
2021/03/16 02:48:34;;;;;;;22.23;3.63;;;;;;;;;;5036319;28;20202;-69
2021/03/16 02:50:59;;;;;;;16.10;2.70;;;;;;;;;;5026357;28;20248;-68
2021/03/16 02:53:26;;;;;;;25.30;2.93;;;;;;;;;;5037335;28;20708;-68
2021/03/16 02:55:53;;;;;;;18.97;2.47;;;;;;;;;;5034175;28;20214;-68
2021/03/16 02:58:20;;;;;;;22.37;3.80;;;;;;;;;;5040564;28;20192;-69
2021/03/16 03:00:46;;;;;;;16.33;3.10;;;;;;;;;;5035374;28;20644;-68
2021/03/16 03:03:14;;;;;;;22.53;2.87;;;;;;;;;;5038703;28;20205;-68
2021/03/16 03:05:42;;;;;;;24.07;2.90;;;;;;;;;;5032592;28;20566;-68
2021/03/16 03:08:09;;;;;;;20.97;3.37;;;;;;;;;;5043305;28;20284;-68
2021/03/16 03:10:35;;;;;;;17.33;2.57;;;;;;;;;;5033569;28;20181;-68
2021/03/16 03:13:00;;;;;;;20.57;3.47;;;;;;;;;;5039261;28;20201;-68
2021/03/16 03:15:26;;;;;;;23.70;2.67;;;;;;;;;;5030691;28;20217;-68
2021/03/16 03:17:51;;;;;;;19.03;3.40;;;;;;;;;;5042517;28;20194;-68
2021/03/16 03:20:17;;;;;;;32.80;3.70;;;;;;;;;;5034977;28;20189;-68
2021/03/16 03:23:08;;;;;;;17.80;2.40;;;;;;;;;;5034317;28;20275;-68
2021/03/16 03:25:39;;;;;;;17.63;2.63;;;;;;;;;;5030427;28;20197;-68
2021/03/16 03:28:09;;;;;;;16.50;2.20;;;;;;;;;;5037110;28;20197;-68
2021/03/16 03:30:35;;;;;;;19.50;2.40;;;;;;;;;;5041080;28;20212;-68
2021/03/16 03:33:03;;;;;;;31.23;3.73;;;;;;;;;;5032166;28;20186;-68
2021/03/16 03:35:31;;;;;;;20.40;2.90;;;;;;;;;;5039478;28;20180;-68
2021/03/16 03:37:57;;;;;;;19.57;2.77;;;;;;;;;;5034932;28;20222;-69
2021/03/16 03:40:25;;;;;;;19.33;3.00;;;;;;;;;;5033957;28;20584;-69
2021/03/16 03:42:54;;;;;;;13.87;2.37;;;;;;;;;;5031598;28;20563;-69
2021/03/16 03:45:19;;;;;;;25.13;3.27;;;;;;;;;;5040540;28;20178;-69
2021/03/16 03:47:45;;;;;;;20.70;3.43;;;;;;;;;;5031237;28;20594;-69
2021/03/16 03:50:13;;;;;;;26.53;3.23;;;;;;;;;;5035777;28;20181;-69
2021/03/16 03:52:39;;;;;;;27.37;2.93;;;;;;;;;;5025582;28;20215;-69
2021/03/16 03:55:06;;;;;;;18.50;2.70;;;;;;;;;;5038385;28;20628;-69
2021/03/16 03:57:32;;;;;;;26.27;2.50;;;;;;;;;;5033018;28;20221;-69
2021/03/16 03:59:59;;;;;;;20.77;3.43;;;;;;;;;;5045769;28;20177;-69
2021/03/16 04:02:24;;;;;;;24.27;3.40;;;;;;;;;;5036995;28;20726;-69
2021/03/16 04:04:51;;;;;;;25.47;3.70;;;;;;;;;;5024958;28;20214;-69
2021/03/16 04:07:18;;;;;;;25.27;3.10;;;;;;;;;;5042136;28;20536;-69
2021/03/16 04:09:43;;;;;;;19.77;3.23;;;;;;;;;;5029881;28;20186;-69
2021/03/16 04:12:09;;;;;;;26.90;3.27;;;;;;;;;;5041209;28;20188;-69
2021/03/16 04:14:35;;;;;;;18.90;3.10;;;;;;;;;;5027303;28;20181;-69
2021/03/16 04:17:01;;;;;;;30.10;3.77;;;;;;;;;;5044745;28;20196;-69
2021/03/16 04:19:27;;;;;;;21.47;2.63;;;;;;;;;;5029351;28;20186;-69
2021/03/16 04:21:53;;;;;;;21.83;3.10;;;;;;;;;;5038608;28;20190;-69
2021/03/16 04:24:20;;;;;;;20.17;2.83;;;;;;;;;;5033005;28;20334;-69
2021/03/16 04:26:45;;;;;;;30.27;3.57;;;;;;;;;;5038438;28;20216;-69
2021/03/16 04:29:10;;;;;;;25.53;3.10;;;;;;;;;;5032079;28;20660;-69
2021/03/16 04:31:36;;;;;;;23.10;2.97;;;;;;;;;;5039376;28;20189;-69
2021/03/16 04:34:01;;;;;;;21.53;2.63;;;;;;;;;;5034821;28;20185;-69
2021/03/16 04:36:26;;;;;;;25.43;3.43;;;;;;;;;;5036696;28;20192;-69
2021/03/16 04:38:52;;;;;;;17.23;2.80;;;;;;;;;;5038187;28;20178;-69
2021/03/16 04:41:17;;;;;;;20.37;2.77;;;;;;;;;;5029655;28;20700;-69
2021/03/16 04:43:45;;;;;;;19.00;2.90;;;;;;;;;;5038604;28;20709;-69
2021/03/16 04:46:10;;;;;;;21.80;3.27;;;;;;;;;;5029027;28;20671;-69
2021/03/16 04:48:36;;;;;;;18.37;2.50;;;;;;;;;;5040513;28;20186;-69
2021/03/16 04:51:01;;;;;;;12.00;2.20;;;;;;;;;;5031727;28;20648;-69
2021/03/16 04:53:26;;;;;;;14.90;2.20;;;;;;;;;;5037789;28;20188;-69
2021/03/16 04:55:52;;;;;;;18.93;2.27;;;;;;;;;;5036365;28;20641;-69
2021/03/16 04:58:17;;;;;;;13.13;2.17;;;;;;;;;;5036084;28;20188;-69
2021/03/16 05:00:42;;;;;;;17.90;2.37;;;;;;;;;;5025043;28;22066;-69
2021/03/16 05:03:08;;;;;;;18.93;2.50;;;;;;;;;;5032873;28;20300;-69
2021/03/16 05:05:33;;;;;;;23.23;2.97;;;;;;;;;;5029657;28;20178;-69
2021/03/16 05:07:58;;;;;;;18.67;1.97;;;;;;;;;;5027430;28;20194;-69
2021/03/16 05:10:24;;;;;;;19.50;3.10;;;;;;;;;;5038907;28;20295;-69
2021/03/16 05:12:49;;;;;;;13.67;2.67;;;;;;;;;;5030314;28;20181;-69
2021/03/16 05:15:14;;;;;;;19.50;2.83;;;;;;;;;;5034774;28;20573;-69
2021/03/16 05:17:40;;;;;;;15.87;2.57;;;;;;;;;;5027750;28;20237;-69
2021/03/16 05:20:06;;;;;;;12.13;2.27;;;;;;;;;;5038818;28;20212;-69
2021/03/16 05:22:33;;;;;;;16.60;2.30;;;;;;;;;;5026050;28;20217;-69
2021/03/16 05:24:58;;;;;;;16.50;2.10;;;;;;;;;;5037483;28;20673;-69
2021/03/16 05:27:23;;;;;;;23.43;2.33;;;;;;;;;;5028648;28;20280;-69
2021/03/16 05:29:49;;;;;;;16.87;2.07;;;;;;;;;;5036110;28;20209;-69
2021/03/16 05:32:14;;;;;;;13.10;2.33;;;;;;;;;;5028497;28;20193;-69
2021/03/16 05:34:39;;;;;;;26.40;3.93;;;;;;;;;;5032214;28;20555;-69
2021/03/16 05:37:05;;;;;;;19.23;2.23;;;;;;;;;;5028802;28;20304;-69
2021/03/16 05:39:30;;;;;;;20.87;2.50;;;;;;;;;;5029725;28;20186;-69
2021/03/16 05:41:56;;;;;;;17.53;2.13;;;;;;;;;;5030876;28;20232;-69
2021/03/16 05:44:22;;;;;;;21.00;2.50;;;;;;;;;;5029002;28;20216;-69
2021/03/16 05:46:48;;;;;;;17.20;2.83;;;;;;;;;;5033729;28;20248;-69
2021/03/16 05:49:16;;;;;;;14.77;1.93;;;;;;;;;;5026250;28;20181;-69
2021/03/16 05:51:42;;;;;;;15.13;2.13;;;;;;;;;;5034942;28;20327;-69
2021/03/16 05:54:08;;;;;;;19.20;2.37;;;;;;;;;;5026772;28;20732;-69
2021/03/16 05:56:34;;;;;;;19.27;2.53;;;;;;;;;;5027681;28;20960;-69
2021/03/16 05:59:02;;;;;;;21.87;2.20;;;;;;;;;;5031323;28;20213;-69
2021/03/16 06:01:27;;;;;;;19.30;3.40;;;;;;;;;;5033419;28;20193;-69
2021/03/16 06:03:53;;;;;;;19.63;2.73;;;;;;;;;;5025599;28;20217;-69
2021/03/16 06:06:18;;;;;;;22.73;2.40;;;;;;;;;;5039414;28;20181;-69
2021/03/16 06:08:43;;;;;;;12.87;1.50;;;;;;;;;;5030967;28;20193;-69
2021/03/16 06:11:10;;;;;;;22.27;2.73;;;;;;;;;;5035446;28;20190;-69
2021/03/16 06:13:36;;;;;;;17.63;2.47;;;;;;;;;;5038756;28;20169;-69
2021/03/16 06:16:12;;;;;;;20.53;2.60;;;;;;;;;;5026265;28;20185;-69
2021/03/16 06:18:41;;;;;;;20.83;2.10;;;;;;;;;;5033725;28;20444;-69
2021/03/16 06:21:07;;;;;;;19.40;2.03;;;;;;;;;;5030487;28;20247;-69
2021/03/16 06:23:34;;;;;;;22.03;3.60;;;;;;;;;;5036681;28;20198;-69
2021/03/16 06:26:01;;;;;;;21.00;2.50;;;;;;;;;;5032283;28;20189;-69
2021/03/16 06:28:34;;;;;;;15.07;2.57;;;;;;;;;;5036254;28;20213;-69
2021/03/16 06:31:00;;;;;;;19.30;2.37;;;;;;;;;;5029320;28;20587;-69
2021/03/16 06:33:28;;;;;;;17.17;2.60;;;;;;;;;;5043421;28;20260;-69
2021/03/16 06:35:59;;;;;;;15.20;1.83;;;;;;;;;;5030739;28;20662;-69
2021/03/16 06:38:25;;;;;;;23.77;3.30;;;;;;;;;;5043329;28;20185;-69
2021/03/16 06:40:51;;;;;;;17.80;2.47;;;;;;;;;;5028728;28;20239;-69
2021/03/16 06:43:17;;;;;;;19.60;2.70;;;;;;;;;;5037325;28;20542;-68
2021/03/16 06:45:42;;;;;;;17.07;2.93;;;;;;;;;;5030146;28;20292;-69
2021/03/16 06:48:22;;;;;;;24.23;2.90;;;;;;;;;;5038082;28;20592;-69
2021/03/16 06:50:48;;;;;;;20.47;3.03;;;;;;;;;;5029175;28;20182;-68
2021/03/16 06:53:25;;;;;;;26.07;2.90;;;;;;;;;;5037147;28;20170;-68
2021/03/16 06:55:55;;;;;;;15.70;2.50;;;;;;;;;;5039220;28;20187;-68
2021/03/16 06:58:24;;;;;;;16.83;3.43;;;;;;;;;;5031558;28;20194;-68
2021/03/16 07:00:50;;;;;;;19.20;3.33;;;;;;;;;;5037662;28;20217;-68
2021/03/16 07:03:17;;;;;;;18.30;3.00;;;;;;;;;;5027694;28;20249;-68
2021/03/16 07:05:44;;;;;;;19.30;2.87;;;;;;;;;;5038793;28;20259;-68
2021/03/16 07:08:12;;;;;;;16.07;2.63;;;;;;;;;;5032930;28;20186;-68
2021/03/16 07:10:39;;;;;;;20.97;3.60;;;;;;;;;;5041144;28;20259;-69
2021/03/16 07:13:06;;;;;;;16.00;3.60;;;;;;;;;;5030092;28;20181;-69
2021/03/16 07:15:32;;;;;;;14.80;2.47;;;;;;;;;;5036081;28;20217;-69
2021/03/16 07:17:57;;;;;;;11.87;2.00;;;;;;;;;;5031097;28;20218;-69
2021/03/16 07:20:28;;;;;;;11.80;2.10;;;;;;;;;;5041755;28;20705;-68
2021/03/16 07:22:56;;;;;;;19.50;2.43;;;;;;;;;;5027604;28;20711;-70
2021/03/16 07:25:22;;;;;;;18.27;2.57;;;;;;;;;;5034835;28;20185;-68
2021/03/16 07:27:49;;;;;;;22.77;3.00;;;;;;;;;;5027799;28;20585;-69
2021/03/16 07:30:15;;;;;;;14.53;2.30;;;;;;;;;;5036251;28;20615;-68
2021/03/16 07:32:41;;;;;;;22.67;3.07;;;;;;;;;;5037116;28;20185;-69
2021/03/16 07:35:08;;;;;;;23.77;4.47;;;;;;;;;;5031972;28;20194;-69
2021/03/16 07:37:34;;;;;;;15.47;2.37;;;;;;;;;;5036854;28;20307;-70
2021/03/16 07:40:03;;;;;;;25.30;2.30;;;;;;;;;;5026806;28;20189;-69
2021/03/16 07:42:28;;;;;;;22.70;2.70;;;;;;;;;;5034517;28;20231;-69
2021/03/16 07:44:54;;;;;;;20.30;2.30;;;;;;;;;;5026537;28;20189;-70
2021/03/16 07:47:19;;;;;;;20.60;2.40;;;;;;;;;;5036320;28;20817;-69
2021/03/16 07:49:45;;;;;;;14.97;2.13;;;;;;;;;;5033754;28;20708;-68
2021/03/16 07:52:23;;;;;;;16.43;2.40;;;;;;;;;;5033896;28;20570;-69
2021/03/16 07:54:50;;;;;;;15.80;2.03;;;;;;;;;;5027348;28;20275;-69
2021/03/16 07:57:30;;;;;;;13.77;2.60;;;;;;;;;;5034894;28;20251;-69
2021/03/16 08:00:05;;;;;;;20.60;2.53;;;;;;;;;;5030194;28;20196;-68
2021/03/16 08:02:32;;;;;;;14.07;2.10;;;;;;;;;;5034607;28;20512;-69
2021/03/16 08:04:58;;;;;;;19.37;2.57;;;;;;;;;;5027600;28;20220;-69
2021/03/16 08:07:27;;;;;;;13.93;1.67;;;;;;;;;;5035841;28;20323;-68
2021/03/16 08:09:57;;;;;;;15.27;2.27;;;;;;;;;;5030619;28;20195;-68
2021/03/16 08:12:25;;;;;;;22.97;2.30;;;;;;;;;;5034608;28;20243;-70
2021/03/16 08:14:50;;;;;;;12.87;1.90;;;;;;;;;;5038867;28;20189;-69
2021/03/16 08:17:26;;;;;;;17.77;2.50;;;;;;;;;;5029733;28;20614;-68
2021/03/16 08:19:52;;;;;;;17.07;2.63;;;;;;;;;;5035219;28;20190;-69
2021/03/16 08:22:20;;;;;;;16.97;2.73;;;;;;;;;;5031283;28;20193;-68
2021/03/16 08:24:45;;;;;;;19.03;2.40;;;;;;;;;;5040812;28;20637;-68
2021/03/16 08:27:13;;;;;;;22.90;3.10;;;;;;;;;;5025317;28;20198;-69
2021/03/16 08:29:47;;;;;;;17.40;1.93;;;;;;;;;;5034547;28;20531;-69
2021/03/16 08:32:18;;;;;;;14.77;2.10;;;;;;;;;;5027034;28;20197;-69
2021/03/16 08:34:44;;;;;;;13.77;2.20;;;;;;;;;;5039339;28;20275;-69
2021/03/16 08:37:31;;;;;;;17.90;2.00;;;;;;;;;;5024931;28;20198;-69
2021/03/16 08:39:56;;;;;;;11.77;1.50;;;;;;;;;;5036993;28;20647;-68
2021/03/16 08:42:24;;;;;;;10.23;1.77;;;;;;;;;;5030345;28;20645;-68
2021/03/16 08:44:51;;;;;;;12.97;1.70;;;;;;;;;;5039883;28;20217;-68
2021/03/16 08:47:21;;;;;;;8.38;1.90;;;;;;;;;;5029018;28;20560;-69
2021/03/16 08:49:48;;;;;;;17.20;2.17;;;;;;;;;;5037411;28;20182;-69
2021/03/16 08:52:15;;;;;;;18.83;2.60;;;;;;;;;;5025347;28;20213;-69
2021/03/16 08:54:40;;;;;;;20.70;2.30;;;;;;;;;;5035685;28;20189;-68
2021/03/16 08:57:06;;;;;;;19.03;3.10;;;;;;;;;;5036281;28;20182;-70
2021/03/16 08:59:32;;;;;;;16.80;2.80;;;;;;;;;;5024843;28;20185;-69
2021/03/16 09:01:57;;;;;;;13.70;2.40;;;;;;;;;;5039527;28;20212;-68
2021/03/16 09:04:22;;;;;;;13.23;1.83;;;;;;;;;;5025373;28;20218;-69
2021/03/16 09:06:53;;;;;;;16.83;1.90;;;;;;;;;;5035457;28;20640;-69
2021/03/16 09:09:27;;;;;;;11.33;1.90;;;;;;;;;;5022936;28;20185;-69
2021/03/16 09:11:53;;;;;;;16.77;1.90;;;;;;;;;;5036114;28;20621;-70
2021/03/16 09:14:20;;;;;;;13.53;1.93;;;;;;;;;;5027933;28;20185;-70
2021/03/16 09:16:51;;;;;;;13.87;1.90;;;;;;;;;;5034322;28;20189;-69
2021/03/16 09:19:19;;;;;;;10.80;2.07;;;;;;;;;;5032353;28;20202;-69
2021/03/16 09:21:58;;;;;;;8.30;1.20;;;;;;;;;;5034618;28;20189;-69
2021/03/16 09:24:28;;;;;;;11.83;1.60;;;;;;;;;;5032551;28;20213;-69
2021/03/16 09:26:59;;;;;;;16.83;2.43;;;;;;;;;;5032200;28;20193;-69
2021/03/16 09:29:33;;;;;;;10.07;1.47;;;;;;;;;;5024064;28;20244;-69
2021/03/16 09:32:11;;;;;;;16.05;2.58;;;;;;;;;;5037152;28;20304;-69
2021/03/16 09:34:39;;;;;;;11.97;2.03;;;;;;;;;;5028720;28;20233;-69
2021/03/16 09:37:10;;;;;;;6.23;1.30;;;;;;;;;;5033663;28;20200;-69
2021/03/16 09:39:36;;;;;;;10.83;1.63;;;;;;;;;;5024302;28;20204;-69
2021/03/16 09:42:03;;;;;;;14.37;1.37;;;;;;;;;;5035393;28;20584;-69
2021/03/16 09:44:43;;;;;;;13.13;1.33;;;;;;;;;;5038980;28;20310;-69
2021/03/16 09:47:09;;;;;;;6.53;1.30;;;;;;;;;;5033686;28;20262;-68
2021/03/16 09:49:40;;;;;;;9.77;1.60;;;;;;;;;;5038572;28;20193;-68
2021/03/16 09:52:10;;;;;;;11.87;1.40;;;;;;;;;;5028274;28;20190;-70
2021/03/16 09:54:40;;;;;;;8.63;1.20;;;;;;;;;;5032183;28;20186;-69
2021/03/16 09:57:13;;;;;;;12.10;1.57;;;;;;;;;;5026468;28;20190;-69
2021/03/16 09:59:43;;;;;;;8.97;1.30;;;;;;;;;;5037599;28;20511;-69
2021/03/16 10:02:09;;;;;;;6.43;1.30;;;;;;;;;;5034904;28;20517;-68
2021/03/16 10:04:49;;;;;;;13.60;1.67;;;;;;;;;;5043718;28;20214;-68
2021/03/16 10:07:24;;;;;;;9.05;1.40;;;;;;;;;;5033319;28;20264;-68
2021/03/16 10:09:50;;;;;;;8.27;1.40;;;;;;;;;;5039784;28;20810;-67
2021/03/16 10:12:22;;;;;;;6.78;1.38;;;;;;;;;;5032431;28;20367;-67
2021/03/16 10:14:50;;;;;;;5.07;1.10;;;;;;;;;;5035866;28;20281;-67
2021/03/16 10:17:29;;;;;;;8.03;1.03;;;;;;;;;;5033366;28;20232;-67
2021/03/16 10:19:56;;;;;;;9.27;1.33;;;;;;;;;;5038505;28;20200;-67
2021/03/16 10:22:30;;;;;;;11.38;2.33;;;;;;;;;;5036206;28;20645;-67
2021/03/16 10:24:57;;;;;;;10.70;1.25;;;;;;;;;;5042167;28;20224;-67
2021/03/16 10:27:27;;;;;;;9.33;1.60;;;;;;;;;;5028781;28;20570;-68
2021/03/16 10:29:53;;;;;;;9.07;1.70;;;;;;;;;;5037637;28;20204;-68
2021/03/16 10:32:19;;;;;;;14.00;1.60;;;;;;;;;;5033583;28;20181;-68
2021/03/16 10:34:44;;;;;;;11.00;2.93;;;;;;;;;;5046470;28;20701;-68
2021/03/16 10:37:20;;;;;;;13.95;2.33;;;;;;;;;;5041347;28;20192;-69
2021/03/16 10:39:46;;;;;;;11.17;1.50;;;;;;;;;;5036750;28;20192;-68
2021/03/16 10:42:12;;;;;;;13.03;1.33;;;;;;;;;;5041930;28;20704;-68
2021/03/16 10:44:38;;;;;;;8.70;1.47;;;;;;;;;;5038164;28;20567;-69
2021/03/16 10:47:03;;;;;;;8.37;1.67;;;;;;;;;;5037354;28;20188;-68
2021/03/16 10:49:29;;;;;;;10.65;1.48;;;;;;;;;;5031517;28;20186;-69
2021/03/16 10:51:54;;;;;;;9.93;1.80;;;;;;;;;;5038360;28;20251;-69
2021/03/16 10:54:19;;;;;;;12.67;2.00;;;;;;;;;;5027864;28;20185;-68
2021/03/16 10:56:45;;;;;;;10.57;1.95;;;;;;;;;;5035845;28;20186;-69
2021/03/16 10:59:10;;;;;;;9.57;1.55;;;;;;;;;;5037519;28;20193;-69
2021/03/16 11:01:35;;;;;;;6.95;1.60;;;;;;;;;;5037959;28;20194;-68
2021/03/16 11:04:01;;;;;;;4.72;1.23;;;;;;;;;;5036284;28;20217;-68
2021/03/16 11:06:26;;;;;;;10.43;1.60;;;;;;;;;;5037788;28;20594;-68
2021/03/16 11:08:51;;;;;;;8.45;1.55;;;;;;;;;;5044138;28;20197;-68
2021/03/16 11:11:16;;;;;;;7.82;1.20;;;;;;;;;;5027577;28;20204;-68
2021/03/16 11:13:42;;;;;;;11.95;1.23;;;;;;;;;;5040876;28;20185;-68
2021/03/16 11:16:07;;;;;;;7.50;1.63;;;;;;;;;;5026634;28;20225;-68
2021/03/16 11:18:33;;;;;;;9.73;2.30;;;;;;;;;;5035014;28;20594;-68
2021/03/16 11:20:58;;;;;;;9.18;1.33;;;;;;;;;;5031648;28;20273;-68
2021/03/16 11:23:23;;;;;;;7.72;1.42;;;;;;;;;;5042012;28;20277;-68
2021/03/16 11:25:49;;;;;;;12.05;1.48;;;;;;;;;;5029398;28;20193;-69
2021/03/16 11:28:14;;;;;;;7.45;1.00;;;;;;;;;;5035922;28;20170;-69
2021/03/16 11:30:39;;;;;;;9.57;1.70;;;;;;;;;;5028298;28;20190;-68
2021/03/16 11:33:05;;;;;;;7.95;1.15;;;;;;;;;;5038206;28;20209;-69
2021/03/16 11:35:30;;;;;;;11.38;1.65;;;;;;;;;;5028741;28;20696;-70
2021/03/16 11:37:56;;;;;;;13.68;1.50;;;;;;;;;;5035542;28;20271;-70
2021/03/16 11:40:21;;;;;;;11.95;1.60;;;;;;;;;;5037623;28;20222;-70
2021/03/16 11:42:46;;;;;;;13.32;1.60;;;;;;;;;;5023835;28;20225;-69
2021/03/16 11:45:12;;;;;;;8.05;1.73;;;;;;;;;;5036870;28;20325;-68
2021/03/16 11:47:37;;;;;;;6.55;1.88;;;;;;;;;;5029503;28;20255;-69
2021/03/16 11:50:04;;;;;;;10.23;1.27;;;;;;;;;;4340414;28;10021596;-69
2021/03/16 11:52:30;;;;;;;8.93;1.42;;;;;;;;;;5029895;28;20182;-69
2021/03/16 11:54:56;;;;;;;10.43;1.90;;;;;;;;;;5035112;28;20244;-68
2021/03/16 11:57:21;;;;;;;8.63;1.33;;;;;;;;;;5023541;28;20672;-69
2021/03/16 11:59:47;;;;;;;13.65;1.48;;;;;;;;;;5034966;28;20204;-69
2021/03/16 12:02:12;;;;;;;5.35;1.25;;;;;;;;;;5023396;28;20190;-69
2021/03/16 12:04:37;;;;;;;3.75;1.15;;;;;;;;;;5036403;28;20578;-69
2021/03/16 12:07:02;;;;;;;6.50;1.13;;;;;;;;;;5026881;28;20190;-68
2021/03/16 12:09:28;;;;;;;6.07;0.93;;;;;;;;;;5037669;28;20772;-69
2021/03/16 12:11:53;;;;;;;6.50;1.13;;;;;;;;;;5033371;28;20720;-69
2021/03/16 12:14:19;;;;;;;5.47;0.90;;;;;;;;;;5030852;28;20712;-69
2021/03/16 12:16:44;;;;;;;7.03;0.90;;;;;;;;;;5029599;28;20219;-69
2021/03/16 12:19:09;;;;;;;7.55;1.02;;;;;;;;;;5025945;28;20185;-69
2021/03/16 12:21:35;;;;;;;6.38;0.98;;;;;;;;;;5031204;28;20272;-69
2021/03/16 12:24:00;;;;;;;8.90;1.25;;;;;;;;;;5027262;28;20665;-69
2021/03/16 12:26:25;;;;;;;6.30;1.05;;;;;;;;;;5034964;28;20211;-69
2021/03/16 12:28:51;;;;;;;5.03;0.80;;;;;;;;;;5033878;28;20693;-69
2021/03/16 12:31:16;;;;;;;7.50;1.10;;;;;;;;;;5035107;28;20681;-69
2021/03/16 12:33:41;;;;;;;6.90;1.30;;;;;;;;;;5026071;28;20186;-69
2021/03/16 12:36:09;;;;;;;8.02;1.10;;;;;;;;;;5037941;28;20185;-69
2021/03/16 12:38:34;;;;;;;6.40;1.17;;;;;;;;;;5028329;28;20676;-69
2021/03/16 12:40:59;;;;;;;7.13;0.85;;;;;;;;;;5036992;28;20267;-68
2021/03/16 12:43:25;;;;;;;6.85;1.23;;;;;;;;;;5036361;28;20218;-69
2021/03/16 12:45:50;;;;;;;7.72;1.48;;;;;;;;;;5029710;28;20214;-68
2021/03/16 12:48:15;;;;;;;9.65;1.45;;;;;;;;;;5031424;28;20188;-68
2021/03/16 12:50:41;;;;;;;9.70;1.52;;;;;;;;;;5030394;28;20239;-68
2021/03/16 12:53:06;;;;;;;6.30;1.45;;;;;;;;;;5037514;28;20650;-68
2021/03/16 12:55:32;;;;;;;6.90;1.15;;;;;;;;;;5029977;28;20213;-69
2021/03/16 12:57:58;;;;;;;12.23;1.00;;;;;;;;;;5031499;28;20645;-70
2021/03/16 13:00:24;;;;;;;8.52;0.90;;;;;;;;;;5027740;28;20595;-68
2021/03/16 13:02:50;;;;;;;4.45;1.10;;;;;;;;;;5034005;28;20197;-69
2021/03/16 13:05:15;;;;;;;8.60;1.25;;;;;;;;;;5024415;28;20223;-68
2021/03/16 13:07:41;;;;;;;6.30;0.98;;;;;;;;;;5032664;28;20438;-68
2021/03/16 13:10:07;;;;;;;8.52;1.30;;;;;;;;;;5023197;28;20381;-68
2021/03/16 13:12:33;;;;;;;8.65;1.27;;;;;;;;;;5036739;28;20183;-68
2021/03/16 13:14:58;;;;;;;7.93;1.60;;;;;;;;;;5033839;28;20186;-68
2021/03/16 13:17:23;;;;;;;6.88;1.10;;;;;;;;;;5024831;28;20787;-69
2021/03/16 13:19:49;;;;;;;10.18;1.30;;;;;;;;;;5033873;28;20713;-70
2021/03/16 13:22:14;;;;;;;9.38;1.73;;;;;;;;;;5029989;28;20208;-70
2021/03/16 13:24:39;;;;;;;9.38;1.65;;;;;;;;;;5034512;28;20278;-68
2021/03/16 13:27:05;;;;;;;9.85;1.83;;;;;;;;;;5033342;28;20204;-69
2021/03/16 13:29:30;;;;;;;12.00;2.40;;;;;;;;;;5035053;28;20268;-69
2021/03/16 13:31:56;;;;;;;10.63;2.30;;;;;;;;;;5030452;28;20283;-69
2021/03/16 13:34:22;;;;;;;12.63;1.50;;;;;;;;;;5033986;28;20193;-69
2021/03/16 13:36:48;;;;;;;6.75;1.02;;;;;;;;;;5032175;28;20197;-70
2021/03/16 13:39:13;;;;;;;7.95;2.53;;;;;;;;;;5034960;28;20252;-70
2021/03/16 13:41:39;;;;;;;8.05;1.13;;;;;;;;;;5026616;28;20229;-69
2021/03/16 13:44:05;;;;;;;6.20;0.85;;;;;;;;;;5029590;28;20715;-69
2021/03/16 13:46:30;;;;;;;5.10;0.90;;;;;;;;;;5035397;28;20279;-69
2021/03/16 13:48:55;;;;;;;7.88;0.90;;;;;;;;;;5034894;28;20187;-69
2021/03/16 13:51:21;;;;;;;8.30;1.27;;;;;;;;;;4685066;28;9999799;-69
2021/03/16 13:53:46;;;;;;;9.48;1.48;;;;;;;;;;5031372;28;20181;-69
2021/03/16 13:56:12;;;;;;;7.95;1.35;;;;;;;;;;5034722;28;20185;-68
2021/03/16 13:58:37;;;;;;;12.82;1.42;;;;;;;;;;5031894;28;20562;-68
2021/03/16 14:01:03;;;;;;;7.50;1.10;;;;;;;;;;5029595;28;20576;-68
2021/03/16 14:03:31;;;;;;;8.43;1.10;;;;;;;;;;5020968;28;20225;-69
2021/03/16 14:05:57;;;;;;;7.55;1.50;;;;;;;;;;5034766;28;20640;-69
2021/03/16 14:08:23;;;;;;;11.43;1.30;;;;;;;;;;5025321;28;20485;-68
2021/03/16 14:10:48;;;;;;;6.93;1.02;;;;;;;;;;5036568;28;20184;-69
2021/03/16 14:13:14;;;;;;;8.55;1.30;;;;;;;;;;5031008;28;20528;-69
2021/03/16 14:15:39;;;;;;;8.70;1.20;;;;;;;;;;5033116;28;20243;-69
2021/03/16 14:18:05;;;;;;;8.95;1.00;;;;;;;;;;5029724;28;20242;-69
2021/03/16 14:20:32;;;;;;;8.07;1.58;;;;;;;;;;5026623;28;20330;-69
2021/03/16 14:22:57;;;;;;;5.95;0.80;;;;;;;;;;5033970;28;20224;-69
2021/03/16 14:25:23;;;;;;;10.07;1.30;;;;;;;;;;5024937;28;20200;-68
2021/03/16 14:27:49;;;;;;;5.22;0.70;;;;;;;;;;5032764;28;20572;-69
2021/03/16 14:30:15;;;;;;;8.75;1.00;;;;;;;;;;5026272;28;20226;-69
2021/03/16 14:32:40;;;;;;;4.72;0.90;;;;;;;;;;5036963;28;20590;-71